Time;durP1;ratioP1;P1;durP2;ratioP2;P2;SDS_P1;SDS_P2;PMS_P1;PMS_P2;Temp;Humidity;BMP_temperature;BMP_pressure;BME280_temperature;BME280_humidity;BME280_pressure;Samples;Min_cycle;Max_cycle;Signal;HPM_P1;HPM_P2
2023/12/21 00:01:33;;;;;;;11.00;5.10;;;;;;;6.08;68.52;98387.88;5019353;28;20190;-88
2023/12/21 00:03:59;;;;;;;19.40;7.27;;;;;;;6.12;68.54;98382.50;5019293;28;20184;-88
2023/12/21 00:06:24;;;;;;;13.23;5.63;;;;;;;6.19;67.98;98378.69;5036457;28;20178;-88
2023/12/21 00:08:50;;;;;;;14.57;7.23;;;;;;;6.13;67.89;98380.75;5036423;28;20640;-88
2023/12/21 00:11:15;;;;;;;16.60;8.87;;;;;;;6.12;67.46;98376.44;5018937;28;20186;-88
2023/12/21 00:13:40;;;;;;;21.20;9.33;;;;;;;6.15;67.15;98381.50;5018820;28;20553;-88
2023/12/21 00:16:06;;;;;;;16.73;8.60;;;;;;;6.17;67.18;98387.47;5036225;28;20186;-88
2023/12/21 00:18:32;;;;;;;18.30;9.13;;;;;;;6.25;66.67;98380.16;5036155;28;20199;-88
2023/12/21 00:20:57;;;;;;;19.33;9.20;;;;;;;6.30;66.26;98385.97;5036156;28;20533;-88
2023/12/21 00:23:22;;;;;;;20.50;9.40;;;;;;;6.33;66.42;98384.97;5018679;28;20186;-88
2023/12/21 00:25:48;;;;;;;18.07;9.90;;;;;;;6.32;66.55;98378.94;5036081;28;20183;-88
2023/12/21 00:28:13;;;;;;;13.73;7.93;;;;;;;6.33;66.44;98380.63;5018609;28;20626;-87
2023/12/21 00:30:39;;;;;;;14.07;7.40;;;;;;;6.28;65.69;98381.75;5036031;28;20633;-88
2023/12/21 00:33:04;;;;;;;13.27;7.80;;;;;;;6.19;65.73;98375.22;5036560;28;20178;-88
2023/12/21 00:35:30;;;;;;;18.97;7.80;;;;;;;6.12;66.67;98381.63;5018479;28;20183;-88
2023/12/21 00:37:55;;;;;;;14.53;7.40;;;;;;;6.14;66.07;98369.41;5036358;28;20366;-88
2023/12/21 00:40:20;;;;;;;14.13;7.23;;;;;;;6.02;66.35;98378.63;5035334;28;20209;-88
2023/12/21 00:42:46;;;;;;;11.50;6.53;;;;;;;6.00;66.79;98372.63;5035759;28;20178;-88
2023/12/21 00:45:12;;;;;;;12.63;7.17;;;;;;;6.00;66.63;98377.03;5035758;28;20273;-88
2023/12/21 00:47:37;;;;;;;14.90;8.17;;;;;;;5.99;66.71;98370.13;5018240;28;20261;-88
2023/12/21 00:50:03;;;;;;;12.80;7.67;;;;;;;6.07;66.11;98362.81;5035702;28;20643;-88
2023/12/21 00:52:28;;;;;;;13.13;7.97;;;;;;;6.22;66.16;98361.22;5035906;28;20170;-88
2023/12/21 00:54:54;;;;;;;13.00;6.67;;;;;;;6.14;66.15;98364.19;5036442;28;20189;-88
2023/12/21 00:57:19;;;;;;;27.63;10.80;;;;;;;6.07;66.24;98358.44;5018062;28;20275;-88
2023/12/21 00:59:44;;;;;;;17.77;8.73;;;;;;;6.07;66.13;98362.81;5035663;28;20202;-88
2023/12/21 01:02:10;;;;;;;28.90;12.53;;;;;;;6.01;66.50;98350.06;5018024;28;20179;-88
2023/12/21 01:04:36;;;;;;;30.53;10.80;;;;;;;6.02;66.70;98349.19;5035927;28;20193;-89
2023/12/21 01:07:01;;;;;;;25.23;9.47;;;;;;;6.06;67.07;98348.09;5017843;28;20179;-88
2023/12/21 01:09:27;;;;;;;17.33;9.17;;;;;;;6.09;67.10;98346.22;5017868;28;20167;-88
2023/12/21 01:11:52;;;;;;;16.73;8.13;;;;;;;6.09;67.03;98345.34;5035294;28;20518;-88
2023/12/21 01:14:18;;;;;;;15.10;8.17;;;;;;;6.07;66.65;98347.19;5035260;28;20193;-88
2023/12/21 01:16:43;;;;;;;17.87;7.83;;;;;;;6.14;66.09;98336.44;5017722;28;20300;-88
2023/12/21 01:19:09;;;;;;;16.33;8.10;;;;;;;6.17;66.42;98330.22;5035099;28;20205;-88
2023/12/21 01:21:34;;;;;;;15.80;7.37;;;;;;;6.04;66.42;98326.53;5035078;28;20339;-88
2023/12/21 01:23:59;;;;;;;12.60;6.67;;;;;;;6.08;66.35;98328.06;5035052;28;20178;-88
2023/12/21 01:26:26;;;;;;;11.67;7.17;;;;;;;6.05;65.61;98328.22;5034944;28;20287;-88
2023/12/21 01:28:51;;;;;;;13.90;7.13;;;;;;;5.99;65.71;98331.09;5035225;28;20184;-88
2023/12/21 01:31:18;;;;;;;17.40;7.43;;;;;;;5.93;65.98;98329.63;5035184;28;20181;-88
2023/12/21 01:33:43;;;;;;;12.13;6.20;;;;;;;5.83;66.09;98332.69;5035132;28;20206;-88
2023/12/21 01:36:09;;;;;;;13.63;6.30;;;;;;;5.66;66.89;98332.63;5034801;28;20232;-88
2023/12/21 01:38:34;;;;;;;12.63;6.10;;;;;;;5.65;66.54;98337.00;5034647;28;20194;-88
2023/12/21 01:41:00;;;;;;;12.33;5.90;;;;;;;5.57;66.77;98337.34;5034972;28;20181;-88
2023/12/21 01:43:25;;;;;;;15.13;6.57;;;;;;;5.51;66.35;98337.59;5017212;28;20552;-88
2023/12/21 01:45:55;;;;;;;15.47;6.63;;;;;;;5.49;66.78;98339.44;5034597;28;20179;-87
2023/12/21 01:48:21;;;;;;;16.83;7.33;;;;;;;5.54;66.45;98347.88;5034852;28;20171;-88
2023/12/21 01:50:47;;;;;;;13.63;7.30;;;;;;;5.63;66.47;98343.19;5016903;28;20581;-88
2023/12/21 01:53:14;;;;;;;12.03;6.17;;;;;;;5.64;66.67;98331.84;5034443;28;20170;-87
2023/12/21 01:55:41;;;;;;;16.10;7.60;;;;;;;5.62;65.86;98341.47;5034689;28;20510;-88
2023/12/21 01:58:08;;;;;;;13.80;6.40;;;;;;;5.50;65.66;98330.72;5034201;28;20185;-88
2023/12/21 02:00:33;;;;;;;15.53;7.33;;;;;;;5.52;65.75;98338.47;5016869;28;20175;-88
2023/12/21 02:02:58;;;;;;;12.10;6.20;;;;;;;5.61;65.74;98337.22;5016901;28;20204;-88
2023/12/21 02:05:24;;;;;;;15.63;5.83;;;;;;;5.58;65.83;98338.19;5016818;28;20643;-87
2023/12/21 02:07:49;;;;;;;16.73;7.30;;;;;;;5.50;65.92;98332.50;5016757;28;20178;-88
2023/12/21 02:10:15;;;;;;;25.00;8.77;;;;;;;5.47;65.77;98325.69;5034133;28;20179;-88
2023/12/21 02:12:40;;;;;;;17.03;7.70;;;;;;;5.61;65.22;98317.22;5016473;28;20711;-88
2023/12/21 02:15:06;;;;;;;20.37;6.97;;;;;;;5.61;65.64;98324.22;5034643;28;20176;-89
2023/12/21 02:17:33;;;;;;;11.87;6.07;;;;;;;5.59;65.37;98325.09;5016551;28;20559;-88
2023/12/21 02:19:59;;;;;;;10.60;5.57;;;;;;;5.45;65.73;98330.06;5033885;28;20679;-88
2023/12/21 02:22:26;;;;;;;10.73;4.77;;;;;;;5.47;66.33;98325.69;5033787;28;20178;-88
2023/12/21 02:24:52;;;;;;;10.43;4.17;;;;;;;5.62;65.86;98315.47;5033865;28;20176;-88
2023/12/21 02:27:18;;;;;;;8.47;4.37;;;;;;;5.59;66.13;98312.13;5033827;28;20189;-88
2023/12/21 02:29:43;;;;;;;7.23;3.60;;;;;;;5.51;67.03;98305.56;5033834;28;20650;-88
2023/12/21 02:32:08;;;;;;;7.80;4.33;;;;;;;5.55;67.31;98307.13;5016382;28;20610;-88
2023/12/21 02:34:34;;;;;;;11.93;4.70;;;;;;;5.55;66.98;98300.16;5033673;28;20223;-88
2023/12/21 02:36:59;;;;;;;9.70;3.80;;;;;;;5.41;67.15;98294.75;5016262;28;20177;-88
2023/12/21 02:39:25;;;;;;;14.00;4.20;;;;;;;5.34;68.22;98290.75;5033818;28;20665;-87
2023/12/21 02:41:53;;;;;;;9.60;4.70;;;;;;;5.34;67.93;98285.56;5033609;28;20624;-87
2023/12/21 02:44:18;;;;;;;10.43;4.43;;;;;;;5.40;68.26;98284.41;5033550;28;20239;-88
2023/12/21 02:46:44;;;;;;;7.30;4.10;;;;;;;5.39;67.89;98278.41;5033807;28;20181;-87
2023/12/21 02:49:09;;;;;;;29.37;9.87;;;;;;;5.32;68.48;98268.38;5034056;28;20169;-87
2023/12/21 02:51:34;;;;;;;36.30;20.07;;;;;;;5.44;67.98;98273.84;5016058;28;20179;-88
2023/12/21 02:54:00;;;;;;;10.83;4.47;;;;;;;5.43;68.02;98263.50;5016022;28;20659;-88
2023/12/21 02:56:25;;;;;;;9.10;3.67;;;;;;;5.49;68.12;98265.81;5015999;28;20720;-88
2023/12/21 02:58:51;;;;;;;7.63;3.73;;;;;;;5.38;67.90;98263.72;5033575;28;20202;-87
2023/12/21 03:01:16;;;;;;;7.57;3.63;;;;;;;5.39;68.17;98265.41;5033613;28;20622;-87
2023/12/21 03:03:41;;;;;;;6.43;3.70;;;;;;;5.23;68.40;98242.78;5033322;28;20189;-87
2023/12/21 03:06:07;;;;;;;11.37;4.27;;;;;;;5.27;68.81;98250.38;5033809;28;20183;-87
2023/12/21 03:08:32;;;;;;;8.40;4.67;;;;;;;5.36;68.63;98247.34;5015882;28;20178;-87
2023/12/21 03:10:58;;;;;;;14.90;4.13;;;;;;;5.33;68.58;98254.44;5033207;28;20647;-88
2023/12/21 03:13:23;;;;;;;9.67;4.67;;;;;;;5.25;68.53;98241.81;5033183;28;20639;-87
2023/12/21 03:15:49;;;;;;;9.93;4.93;;;;;;;5.28;68.89;98246.00;5015759;28;20227;-87
2023/12/21 03:18:15;;;;;;;7.33;4.13;;;;;;;5.25;69.09;98240.94;5033066;28;20531;-88
2023/12/21 03:20:40;;;;;;;29.13;6.73;;;;;;;5.22;68.41;98256.69;5015719;28;20200;-87
2023/12/21 03:23:06;;;;;;;10.40;4.73;;;;;;;5.12;68.55;98247.63;5015584;28;20193;-87
2023/12/21 03:25:31;;;;;;;7.93;4.73;;;;;;;5.31;68.06;98251.06;5033012;28;20206;-87
2023/12/21 03:27:57;;;;;;;10.33;3.90;;;;;;;5.30;68.23;98247.63;5033049;28;20189;-87
2023/12/21 03:30:22;;;;;;;7.83;3.77;;;;;;;5.30;68.08;98242.44;5015609;28;20655;-87
2023/12/21 03:32:48;;;;;;;6.70;4.20;;;;;;;5.34;68.42;98244.00;5032997;28;20219;-87
2023/12/21 03:35:13;;;;;;;8.73;4.53;;;;;;;5.32;68.27;98235.41;5032984;28;20174;-87
2023/12/21 03:37:39;;;;;;;9.43;4.23;;;;;;;5.26;69.12;98235.72;5033464;28;20201;-88
2023/12/21 03:40:06;;;;;;;7.47;3.60;;;;;;;5.08;69.59;98228.75;5032852;28;20259;-87
2023/12/21 03:42:32;;;;;;;7.63;3.93;;;;;;;5.04;69.51;98226.34;5033165;28;20178;-87
2023/12/21 03:44:57;;;;;;;7.37;4.00;;;;;;;5.03;69.93;98228.13;5032893;28;20185;-87
2023/12/21 03:47:23;;;;;;;6.13;3.00;;;;;;;5.07;70.15;98221.00;5032875;28;20687;-87
2023/12/21 03:49:48;;;;;;;6.80;3.30;;;;;;;5.07;69.93;98223.59;5033386;28;20185;-87
2023/12/21 03:52:14;;;;;;;5.27;3.07;;;;;;;5.14;69.91;98223.25;5032872;28;20182;-87
2023/12/21 03:54:39;;;;;;;8.77;4.10;;;;;;;5.25;69.71;98228.81;5033328;28;20185;-87
2023/12/21 03:57:05;;;;;;;7.27;3.60;;;;;;;5.23;70.06;98235.00;5033050;28;20257;-87
2023/12/21 03:59:30;;;;;;;9.37;3.73;;;;;;;5.16;70.30;98225.81;5032934;28;20204;-87
2023/12/21 04:01:57;;;;;;;5.67;3.53;;;;;;;5.21;70.41;98232.47;5032752;28;20187;-87
2023/12/21 04:04:22;;;;;;;7.17;3.47;;;;;;;5.35;70.26;98234.41;5015226;28;20255;-87
2023/12/21 04:06:48;;;;;;;9.50;4.27;;;;;;;5.39;70.06;98239.44;5032678;28;20178;-87
2023/12/21 04:09:13;;;;;;;11.13;4.67;;;;;;;5.29;69.25;98245.13;5032677;28;20709;-87
2023/12/21 04:11:38;;;;;;;8.57;4.47;;;;;;;5.20;69.40;98248.13;5032916;28;20181;-87
2023/12/21 04:14:04;;;;;;;14.43;4.80;;;;;;;5.17;69.30;98250.84;5032515;28;20194;-87
2023/12/21 04:16:29;;;;;;;6.80;3.10;;;;;;;5.21;69.28;98248.06;5018576;28;20577;-87
2023/12/21 04:18:54;;;;;;;6.77;3.67;;;;;;;5.21;68.84;98250.66;5036497;28;20195;-87
2023/12/21 04:21:20;;;;;;;9.03;4.43;;;;;;;5.19;68.55;98242.06;5019351;28;20633;-87
2023/12/21 04:23:46;;;;;;;11.30;3.97;;;;;;;5.18;69.22;98256.00;5036192;28;20216;-87
2023/12/21 04:26:19;;;;;;;9.93;4.30;;;;;;;5.16;69.16;98257.81;5036133;28;20505;-87
2023/12/21 04:28:44;;;;;;;10.83;4.43;;;;;;;5.20;68.47;98248.97;5036379;28;20232;-87
2023/12/21 04:31:10;;;;;;;9.57;4.40;;;;;;;5.24;68.27;98254.88;5036011;28;20185;-87
2023/12/21 04:33:39;;;;;;;9.40;5.27;;;;;;;5.21;68.06;98250.66;5036086;28;20174;-87
2023/12/21 04:36:05;;;;;;;9.07;4.63;;;;;;;5.12;68.23;98251.06;5035974;28;20186;-87
2023/12/21 04:38:30;;;;;;;7.80;4.70;;;;;;;5.16;68.34;98254.38;5018365;28;20200;-87
2023/12/21 04:40:55;;;;;;;10.57;4.30;;;;;;;5.20;67.55;98246.38;5035865;28;20597;-87
2023/12/21 04:43:21;;;;;;;12.17;6.10;;;;;;;5.08;67.24;98246.94;5036316;28;20256;-87
2023/12/21 04:45:46;;;;;;;15.17;6.93;;;;;;;4.98;67.71;98249.06;5018321;28;20247;-87
2023/12/21 04:48:11;;;;;;;16.70;6.60;;;;;;;5.04;67.82;98252.31;5018294;28;20189;-87
2023/12/21 04:50:37;;;;;;;16.57;6.87;;;;;;;5.04;67.59;98250.56;5018303;28;20225;-87
2023/12/21 04:53:02;;;;;;;15.17;6.67;;;;;;;5.11;67.64;98248.53;5035644;28;20681;-87
2023/12/21 04:55:28;;;;;;;18.57;7.37;;;;;;;5.12;68.00;98248.47;5035876;28;20170;-87
2023/12/21 04:57:53;;;;;;;18.87;8.30;;;;;;;5.12;67.77;98251.06;5035847;28;20174;-87
2023/12/21 05:00:19;;;;;;;12.23;5.50;;;;;;;5.05;67.44;98241.88;5017968;28;20205;-87
2023/12/21 05:02:44;;;;;;;14.70;6.50;;;;;;;5.11;67.46;98244.16;5035457;28;20177;-87
2023/12/21 05:05:09;;;;;;;15.97;7.53;;;;;;;5.12;67.40;98235.47;5017987;28;20537;-87
2023/12/21 05:07:36;;;;;;;17.73;7.43;;;;;;;5.07;67.36;98244.38;5035355;28;20244;-87
2023/12/21 05:10:01;;;;;;;13.63;6.80;;;;;;;5.04;67.40;98242.75;5035315;28;20183;-87
2023/12/21 05:12:27;;;;;;;13.47;6.27;;;;;;;5.00;67.52;98253.38;5017792;28;20547;-87
2023/12/21 05:14:53;;;;;;;14.80;6.80;;;;;;;4.91;67.82;98267.59;5035120;28;20193;-88
2023/12/21 05:17:19;;;;;;;14.07;6.57;;;;;;;4.82;67.78;98265.41;5035467;28;20566;-87
2023/12/21 05:19:46;;;;;;;14.57;6.07;;;;;;;4.85;67.63;98267.84;5035267;28;20294;-87
2023/12/21 05:22:11;;;;;;;14.40;5.37;;;;;;;4.80;68.10;98268.06;5035345;28;20175;-87
2023/12/21 05:24:40;;;;;;;9.10;5.10;;;;;;;4.78;68.29;98269.88;5017650;28;20188;-88
2023/12/21 05:27:06;;;;;;;11.63;4.73;;;;;;;4.97;67.42;98277.72;5017145;28;20186;-87
2023/12/21 05:29:31;;;;;;;10.83;5.77;;;;;;;5.00;67.55;98272.41;5034947;28;20186;-87
2023/12/21 05:31:57;;;;;;;15.40;6.43;;;;;;;4.87;68.44;98281.63;5034907;28;20529;-87
2023/12/21 05:34:22;;;;;;;15.47;6.60;;;;;;;4.74;69.61;98285.66;5017280;28;20186;-87
2023/12/21 05:36:48;;;;;;;15.53;6.30;;;;;;;4.67;70.06;98279.88;5035061;28;20214;-87
2023/12/21 05:39:13;;;;;;;13.50;6.53;;;;;;;4.77;70.12;98277.75;5017235;28;20201;-87
2023/12/21 05:41:40;;;;;;;12.87;6.30;;;;;;;4.85;69.54;98280.81;5034645;28;20190;-87
2023/12/21 05:44:05;;;;;;;12.07;6.17;;;;;;;4.88;69.27;98283.28;5017095;28;20184;-87
2023/12/21 05:46:31;;;;;;;10.47;5.57;;;;;;;4.83;69.71;98286.09;5035119;28;20182;-87
2023/12/21 05:48:56;;;;;;;12.10;6.73;;;;;;;4.87;69.16;98290.22;5016978;28;20192;-87
2023/12/21 05:51:21;;;;;;;11.90;5.77;;;;;;;4.85;68.99;98291.22;5034519;28;20176;-87
2023/12/21 05:53:47;;;;;;;10.90;5.30;;;;;;;4.83;68.99;98300.81;5034478;28;20186;-87
2023/12/21 05:56:12;;;;;;;14.13;6.13;;;;;;;4.74;69.41;98311.63;5034410;28;20255;-87
2023/12/21 05:58:38;;;;;;;14.23;6.10;;;;;;;4.71;70.14;98314.34;5034605;28;20196;-87
2023/12/21 06:01:04;;;;;;;13.17;6.53;;;;;;;4.83;70.16;98317.25;5034616;28;20189;-87
2023/12/21 06:03:29;;;;;;;9.97;5.40;;;;;;;4.70;70.18;98316.09;5034283;28;20600;-87
2023/12/21 06:05:55;;;;;;;12.53;4.97;;;;;;;4.63;71.41;98319.84;5034257;28;20174;-88
2023/12/21 06:08:20;;;;;;;14.20;5.73;;;;;;;4.70;70.92;98312.63;5012703;28;20182;-87
2023/12/21 06:10:46;;;;;;;15.30;6.00;;;;;;;4.75;71.66;98306.34;5033979;28;20186;-87
2023/12/21 06:13:11;;;;;;;21.47;8.87;;;;;;;5.06;69.94;98313.66;5033952;28;20634;-87
2023/12/21 06:15:37;;;;;;;19.53;9.63;;;;;;;5.09;70.34;98315.28;5016497;28;20277;-87
2023/12/21 06:18:03;;;;;;;19.97;10.63;;;;;;;5.27;70.35;98312.72;5033651;28;20201;-88
2023/12/21 06:20:30;;;;;;;21.13;9.80;;;;;;;5.21;70.34;98318.19;5016424;28;20189;-87
2023/12/21 06:22:55;;;;;;;21.13;10.03;;;;;;;5.10;69.78;98317.81;5049442;28;20182;-87
2023/12/21 06:25:21;;;;;;;15.97;8.07;;;;;;;5.07;69.75;98317.94;5016400;28;20185;-87
2023/12/21 06:27:47;;;;;;;18.33;10.27;;;;;;;5.01;69.35;98315.59;5033796;28;20643;-87
2023/12/21 06:30:12;;;;;;;18.17;8.77;;;;;;;5.04;69.76;98320.69;5033606;28;20174;-87
2023/12/21 06:32:40;;;;;;;22.97;10.23;;;;;;;5.18;70.27;98322.69;5033664;28;20175;-87
2023/12/21 06:35:06;;;;;;;17.63;9.27;;;;;;;5.85;71.27;98317.88;5033744;28;20201;-87
2023/12/21 06:37:31;;;;;;;17.33;8.77;;;;;;;7.11;71.39;98312.47;5032550;28;20275;-87
2023/12/21 06:39:57;;;;;;;18.27;7.80;;;;;;;8.27;64.16;98307.91;5031989;28;20283;-87
2023/12/21 06:42:23;;;;;;;15.07;6.50;;;;;;;8.78;61.02;98302.28;5014095;28;20641;-87
2023/12/21 06:44:48;;;;;;;12.10;5.67;;;;;;;9.37;58.05;98303.97;5014048;28;20189;-88
2023/12/21 06:47:13;;;;;;;12.13;5.63;;;;;;;10.01;55.77;98294.75;5031454;28;20174;-87
2023/12/21 06:49:39;;;;;;;12.93;6.27;;;;;;;10.03;54.57;98304.19;5014026;28;20538;-88
2023/12/21 06:52:04;;;;;;;11.37;5.60;;;;;;;9.92;54.45;98303.16;5014206;28;20268;-87
2023/12/21 06:54:29;;;;;;;12.00;5.03;;;;;;;9.62;55.52;98319.84;5015289;28;20189;-87
2023/12/21 06:56:55;;;;;;;9.27;5.20;;;;;;;9.82;54.94;98316.84;5016001;28;20692;-89
2023/12/21 06:59:21;;;;;;;10.13;4.97;;;;;;;9.73;55.68;98321.78;5033837;28;20205;-88
2023/12/21 07:01:46;;;;;;;11.80;5.00;;;;;;;9.60;56.21;98320.88;5033315;28;20248;-89
2023/12/21 07:04:11;;;;;;;9.77;5.37;;;;;;;9.66;57.00;98320.50;5015751;28;20193;-89
2023/12/21 07:06:37;;;;;;;43.80;17.73;;;;;;;9.84;55.40;98324.59;5016207;28;20677;-88
2023/12/21 07:09:02;;;;;;;45.60;20.03;;;;;;;9.88;53.00;98331.28;5015878;28;20178;-88
2023/12/21 07:11:28;;;;;;;37.33;18.73;;;;;;;9.86;53.33;98327.94;5033254;28;20188;-88
2023/12/21 07:13:54;;;;;;;35.83;15.97;;;;;;;9.92;52.59;98326.72;5033038;28;20554;-89
2023/12/21 07:16:19;;;;;;;30.43;14.40;;;;;;;9.94;52.73;98330.91;5033189;28;20174;-89
2023/12/21 07:18:45;;;;;;;28.40;11.67;;;;;;;9.87;53.57;98319.16;5015989;28;20201;-88
2023/12/21 07:21:11;;;;;;;13.17;6.47;;;;;;;9.48;55.82;98316.41;5033404;28;20178;-88
2023/12/21 07:23:36;;;;;;;18.47;6.57;;;;;;;9.24;56.99;98314.34;5033409;28;20196;-89
2023/12/21 07:26:02;;;;;;;14.50;7.10;;;;;;;8.92;58.84;98306.72;5033904;28;20182;-88
2023/12/21 07:28:28;;;;;;;12.83;6.47;;;;;;;8.93;58.94;98311.03;5015599;28;20261;-88
2023/12/21 07:30:54;;;;;;;12.87;6.53;;;;;;;8.90;59.22;98314.66;5015666;28;20285;-89
2023/12/21 07:33:20;;;;;;;16.37;6.70;;;;;;;8.91;59.31;98310.28;5033523;28;20217;-88
2023/12/21 07:35:45;;;;;;;13.33;6.50;;;;;;;9.02;58.87;98313.94;5033266;28;20630;-89
2023/12/21 07:38:11;;;;;;;14.10;6.93;;;;;;;8.91;59.76;98311.09;5015761;28;20759;-88
2023/12/21 07:40:36;;;;;;;11.33;6.20;;;;;;;8.90;59.98;98304.22;5033225;28;20182;-89
2023/12/21 07:43:02;;;;;;;12.33;6.40;;;;;;;9.10;59.60;98310.84;5016264;28;20610;-89
2023/12/21 07:45:27;;;;;;;20.30;7.53;;;;;;;9.18;59.76;98314.69;5015800;28;20638;-89
2023/12/21 07:47:52;;;;;;;15.70;6.60;;;;;;;9.43;59.02;98306.22;5016128;28;20178;-89
2023/12/21 07:50:18;;;;;;;18.43;7.83;;;;;;;9.53;58.11;98311.72;5036421;28;20188;-89
2023/12/21 07:52:43;;;;;;;15.03;7.57;;;;;;;9.56;57.97;98315.00;5019245;28;20550;-89
2023/12/21 07:55:09;;;;;;;15.37;7.50;;;;;;;9.57;57.85;98310.59;5036953;28;20171;-88
2023/12/21 07:57:34;;;;;;;14.00;6.77;;;;;;;9.79;56.80;98309.19;5033821;28;20186;-89
2023/12/21 08:00:00;;;;;;;16.97;7.77;;;;;;;9.91;57.65;98307.53;5036295;28;20202;-89
2023/12/21 08:02:25;;;;;;;14.23;7.43;;;;;;;10.22;56.39;98309.94;5036548;28;20244;-89
2023/12/21 08:04:51;;;;;;;16.37;7.97;;;;;;;10.37;54.95;98314.19;5018544;28;20269;-90
2023/12/21 08:07:16;;;;;;;15.73;5.97;;;;;;;10.43;55.20;98312.94;5036607;28;20191;-89
2023/12/21 08:09:42;;;;;;;14.07;7.23;;;;;;;10.67;55.15;98315.75;5036281;28;20181;-89
2023/12/21 08:12:08;;;;;;;14.07;6.87;;;;;;;10.58;54.70;98317.19;5036209;28;20181;-90
2023/12/21 08:14:35;;;;;;;16.93;7.00;;;;;;;10.58;53.89;98308.50;5018709;28;20182;-89
2023/12/21 08:17:03;;;;;;;12.17;6.07;;;;;;;10.55;54.43;98306.91;5018647;28;20176;-90
2023/12/21 08:19:28;;;;;;;14.27;7.27;;;;;;;10.80;54.17;98300.88;5018510;28;20210;-90
2023/12/21 08:21:54;;;;;;;17.27;6.80;;;;;;;10.90;54.01;98308.03;5018858;28;20181;-90
2023/12/21 08:24:23;;;;;;;14.73;6.83;;;;;;;10.90;53.26;98307.22;5036425;28;20185;-89
2023/12/21 08:26:49;;;;;;;16.27;7.03;;;;;;;10.68;53.72;98305.16;5035959;28;20549;-89
2023/12/21 08:29:14;;;;;;;12.40;6.17;;;;;;;10.74;53.98;98311.78;5036359;28;20170;-89
2023/12/21 08:31:39;;;;;;;13.10;6.93;;;;;;;10.85;54.16;98320.59;5035891;28;20168;-91
2023/12/21 08:34:05;;;;;;;15.43;7.00;;;;;;;10.88;53.15;98314.31;5035991;28;20234;-90
2023/12/21 08:36:30;;;;;;;12.37;6.40;;;;;;;10.94;53.52;98313.91;5035873;28;20698;-91
2023/12/21 08:38:57;;;;;;;15.57;7.27;;;;;;;11.21;53.38;98314.69;5018590;28;20211;-90
2023/12/21 08:41:24;;;;;;;13.37;7.40;;;;;;;11.47;51.71;98318.97;5018342;28;20614;-91
2023/12/21 08:43:51;;;;;;;18.37;7.17;;;;;;;11.42;51.58;98321.09;5018329;28;20203;-91
2023/12/21 08:46:17;;;;;;;12.87;6.57;;;;;;;11.35;51.38;98321.59;5018608;28;20600;-91
2023/12/21 08:48:42;;;;;;;14.97;7.57;;;;;;;11.58;51.34;98319.06;5035625;28;20229;-91
2023/12/21 08:51:08;;;;;;;15.83;7.43;;;;;;;11.62;51.15;98323.16;5035781;28;20203;-91
2023/12/21 08:53:33;;;;;;;16.30;8.40;;;;;;;11.77;50.63;98323.06;5035836;28;20633;-90
2023/12/21 08:55:59;;;;;;;16.53;7.30;;;;;;;11.51;51.50;98325.69;5017978;28;20600;-91
2023/12/21 08:58:24;;;;;;;15.97;8.10;;;;;;;11.60;51.31;98322.44;5035562;28;20215;-90
2023/12/21 09:00:51;;;;;;;15.67;8.03;;;;;;;11.70;51.56;98328.75;5017325;28;20276;-90
2023/12/21 09:03:19;;;;;;;17.13;7.77;;;;;;;11.90;50.99;98319.47;5035293;28;20181;-92
2023/12/21 09:05:44;;;;;;;16.30;7.50;;;;;;;12.07;51.01;98313.00;5018077;28;20203;-91
2023/12/21 09:08:10;;;;;;;15.97;8.33;;;;;;;12.29;50.69;98313.13;5035480;28;20218;-91
2023/12/21 09:10:35;;;;;;;14.37;7.70;;;;;;;12.30;49.73;98304.31;5018039;28;20171;-92
2023/12/21 09:13:00;;;;;;;17.23;8.07;;;;;;;12.20;49.19;98308.56;5034345;28;20198;-91
2023/12/21 09:15:28;;;;;;;17.27;8.77;;;;;;;12.25;50.16;98312.53;5034877;28;20171;-91
2023/12/21 09:17:54;;;;;;;17.27;9.00;;;;;;;12.28;49.88;98308.84;5017352;28;20227;-91
2023/12/21 09:20:19;;;;;;;17.07;8.67;;;;;;;12.44;49.63;98305.94;5034237;28;20198;-91
2023/12/21 09:22:46;;;;;;;16.67;9.30;;;;;;;12.63;49.25;98306.28;5034494;28;20302;-93
2023/12/21 09:25:11;;;;;;;18.10;7.63;;;;;;;12.70;49.59;98302.22;5017308;28;20519;-91
2023/12/21 09:27:36;;;;;;;16.83;8.00;;;;;;;12.69;50.14;98300.53;5034230;28;20190;-92
2023/12/21 09:30:05;;;;;;;16.73;8.90;;;;;;;12.80;49.33;98288.28;5034719;28;20173;-92
2023/12/21 09:32:31;;;;;;;24.23;11.83;;;;;;;12.85;49.85;98286.13;5017904;28;20307;-92
2023/12/21 09:34:56;;;;;;;24.73;10.23;;;;;;;13.08;49.20;98280.94;5018738;28;20223;-92
2023/12/21 09:37:22;;;;;;;19.40;9.37;;;;;;;13.13;49.34;98270.94;5017890;28;20178;-91
2023/12/21 09:39:47;;;;;;;16.17;7.93;;;;;;;13.04;48.26;98268.97;5035100;28;20213;-92
2023/12/21 09:42:15;;;;;;;14.43;7.93;;;;;;;12.91;48.72;98259.38;5035064;28;20174;-92
2023/12/21 09:44:45;;;;;;;13.27;7.40;;;;;;;13.03;48.95;98257.59;5017615;28;20194;-91
2023/12/21 09:47:13;;;;;;;16.23;7.70;;;;;;;12.91;48.62;98243.59;5017976;28;20174;-91
2023/12/21 09:49:41;;;;;;;14.90;7.17;;;;;;;12.92;48.30;98239.16;5017422;28;20174;-92
2023/12/21 09:52:08;;;;;;;15.77;7.93;;;;;;;12.72;49.36;98240.69;5017304;28;20209;-92
2023/12/21 09:54:39;;;;;;;14.20;7.23;;;;;;;13.00;48.58;98230.72;5035070;28;20236;-91
2023/12/21 09:57:06;;;;;;;15.97;7.60;;;;;;;13.01;48.23;98224.47;5034962;28;20250;-91
2023/12/21 09:59:35;;;;;;;12.17;6.70;;;;;;;13.14;48.28;98225.25;5034710;28;20221;-91
2023/12/21 10:02:01;;;;;;;14.47;7.33;;;;;;;13.18;48.25;98224.06;5017207;28;20587;-91
2023/12/21 10:04:26;;;;;;;15.70;7.37;;;;;;;13.34;48.21;98216.63;5017377;28;20659;-92
2023/12/21 10:06:52;;;;;;;16.53;7.80;;;;;;;13.35;48.39;98206.00;5017258;28;20182;-90
2023/12/21 10:09:19;;;;;;;15.33;7.93;;;;;;;13.59;47.97;98203.22;5017080;28;20332;-91
2023/12/21 10:11:44;;;;;;;15.63;7.57;;;;;;;13.62;47.24;98210.88;5016965;28;20615;-93
2023/12/21 10:14:19;;;;;;;12.70;7.17;;;;;;;13.77;47.14;98200.91;5016864;28;20269;-93
2023/12/21 10:16:45;;;;;;;15.37;7.80;;;;;;;14.03;47.19;98195.22;5017168;28;20181;-92
2023/12/21 10:19:11;;;;;;;16.00;6.90;;;;;;;13.90;46.32;98194.53;5017061;28;20228;-91
2023/12/21 10:21:40;;;;;;;15.00;7.17;;;;;;;13.88;46.14;98178.03;5016792;28;20255;-92
2023/12/21 10:24:06;;;;;;;16.77;7.00;;;;;;;13.75;46.86;98176.50;5016777;28;20178;-91
2023/12/21 10:26:32;;;;;;;13.20;6.57;;;;;;;13.61;47.25;98172.31;5016713;28;20176;-92
2023/12/21 10:28:58;;;;;;;15.17;8.17;;;;;;;13.52;48.13;98167.81;5016864;28;20170;-93
2023/12/21 10:31:25;;;;;;;16.50;7.70;;;;;;;13.75;48.13;98172.06;5017388;28;20181;-92
2023/12/21 10:33:53;;;;;;;14.60;7.73;;;;;;;14.00;47.26;98171.75;5034152;28;20170;-92
2023/12/21 10:36:19;;;;;;;15.13;7.50;;;;;;;14.18;47.31;98171.22;5016881;28;20579;-92
2023/12/21 10:38:45;;;;;;;16.37;8.47;;;;;;;14.47;47.07;98159.09;5017099;28;20194;-92
2023/12/21 10:41:10;;;;;;;14.63;8.20;;;;;;;14.67;46.94;98159.06;5016615;28;20174;-93
2023/12/21 10:43:36;;;;;;;15.03;7.50;;;;;;;14.76;45.22;98149.56;5017102;28;20195;-92
2023/12/21 10:46:04;;;;;;;18.57;6.67;;;;;;;14.67;45.55;98135.34;5016790;28;20267;-92
2023/12/21 10:48:38;;;;;;;14.80;6.93;;;;;;;14.69;45.43;98135.22;5016713;28;20175;-93
2023/12/21 10:51:13;;;;;;;14.00;6.60;;;;;;;14.62;45.21;98126.19;5017379;28;20530;-92
2023/12/21 10:53:42;;;;;;;14.73;6.90;;;;;;;14.71;44.76;98114.81;5034443;28;20162;-93
2023/12/21 10:56:09;;;;;;;12.80;5.93;;;;;;;14.71;44.83;98110.41;5016638;28;20183;-92
2023/12/21 10:58:43;;;;;;;13.63;7.27;;;;;;;14.53;45.24;98111.97;5016444;28;20263;-93
2023/12/21 11:01:14;;;;;;;13.37;6.73;;;;;;;14.49;45.52;98104.44;5016497;28;20237;-93
2023/12/21 11:03:53;;;;;;;10.57;5.77;;;;;;;14.67;45.88;98108.97;5016319;28;20547;-93
2023/12/21 11:06:21;;;;;;;13.70;5.77;;;;;;;14.92;44.57;98102.44;5016630;28;20217;-93
2023/12/21 11:08:54;;;;;;;12.73;6.90;;;;;;;14.49;44.68;98102.63;5015635;28;20186;-93
2023/12/21 11:11:31;;;;;;;14.73;7.67;;;;;;;14.30;45.37;98088.47;5016464;28;20182;-92
2023/12/21 11:14:00;;;;;;;12.07;5.83;;;;;;;14.38;45.38;98080.78;5016165;28;20245;-93
2023/12/21 11:17:23;;;;;;;10.57;5.90;;;;;;;14.29;45.85;98089.41;5016743;28;20186;-92
2023/12/21 11:20:15;;;;;;;;;;;;;;;;;;;;;
2023/12/21 11:22:59;;;;;;;;;;;;;;;;;;;;;
2023/12/21 11:26:14;;;;;;;12.27;5.77;;;;;;;14.12;46.24;98067.94;5040166;28;20633;-94
2023/12/21 11:32:46;;;;;;;10.47;5.73;;;;;;;14.40;45.90;98063.03;5030999;28;20193;-94
2023/12/21 15:10:51;;;;;;;20.73;10.70;;;;;;;13.62;45.76;97980.97;4933678;28;20228;-88